Time;durP1;ratioP1;P1;durP2;ratioP2;P2;SDS_P1;SDS_P2;PMS_P1;PMS_P2;Temp;Humidity;BMP_temperature;BMP_pressure;BME280_temperature;BME280_humidity;BME280_pressure;Samples;Min_cycle;Max_cycle;Signal;HPM_P1;HPM_P2
2023/09/17 00:02:06;;;;;;;16.40;10.67;;;;;;;;;;5035339;28;20258;-71
2023/09/17 00:04:32;;;;;;;19.13;10.87;;;;;;;;;;5035456;28;20033;-71
2023/09/17 00:06:58;;;;;;;16.80;10.75;;;;;;;;;;5035425;28;20251;-71
2023/09/17 00:09:23;;;;;;;15.93;10.68;;;;;;;;;;5035417;28;20429;-70
2023/09/17 00:11:48;;;;;;;20.13;11.17;;;;;;;;;;5035380;28;20048;-71
2023/09/17 00:14:14;;;;;;;23.45;11.57;;;;;;;;;;5035341;28;20108;-71
2023/09/17 00:16:39;;;;;;;17.30;11.50;;;;;;;;;;5035290;28;20025;-71
2023/09/17 00:19:04;;;;;;;14.32;10.40;;;;;;;;;;5035184;28;20255;-71
2023/09/17 00:21:29;;;;;;;20.77;11.50;;;;;;;;;;5035224;28;20483;-71
2023/09/17 00:23:55;;;;;;;18.20;10.53;;;;;;;;;;5035167;28;20017;-71
2023/09/17 00:26:20;;;;;;;21.58;9.93;;;;;;;;;;5035023;28;20037;-71
2023/09/17 00:28:45;;;;;;;19.80;11.90;;;;;;;;;;5035051;28;20389;-71
2023/09/17 00:31:10;;;;;;;22.50;11.93;;;;;;;;;;5034874;28;20053;-71
2023/09/17 00:33:35;;;;;;;17.70;11.17;;;;;;;;;;5034986;28;20694;-71
2023/09/17 00:36:01;;;;;;;19.30;11.30;;;;;;;;;;5034644;28;20026;-71
2023/09/17 00:38:26;;;;;;;20.70;11.07;;;;;;;;;;5034882;28;20026;-71
2023/09/17 00:40:51;;;;;;;21.00;12.17;;;;;;;;;;5034863;28;20021;-71
2023/09/17 00:43:17;;;;;;;17.60;10.47;;;;;;;;;;5034683;28;20366;-71
2023/09/17 00:45:43;;;;;;;34.05;12.23;;;;;;;;;;5034935;28;20460;-71
2023/09/17 00:48:09;;;;;;;17.00;11.30;;;;;;;;;;5034752;28;20022;-71
2023/09/17 00:50:34;;;;;;;23.35;12.82;;;;;;;;;;5034454;28;20061;-71
2023/09/17 00:53:00;;;;;;;18.92;12.75;;;;;;;;;;5034622;28;20021;-71
2023/09/17 00:55:28;;;;;;;24.95;12.35;;;;;;;;;;5034439;28;20025;-71
2023/09/17 00:57:53;;;;;;;21.13;12.70;;;;;;;;;;5034239;28;20025;-71
2023/09/17 01:00:21;;;;;;;24.00;13.45;;;;;;;;;;5034676;28;20017;-71
2023/09/17 01:02:47;;;;;;;20.52;12.25;;;;;;;;;;5034316;28;20017;-71
2023/09/17 01:05:13;;;;;;;22.73;11.18;;;;;;;;;;5034617;28;20025;-71
2023/09/17 01:07:38;;;;;;;23.40;12.15;;;;;;;;;;5034289;28;20382;-71
2023/09/17 01:10:04;;;;;;;22.85;12.27;;;;;;;;;;5034202;28;20025;-71
2023/09/17 01:12:31;;;;;;;26.63;12.55;;;;;;;;;;5034295;28;20018;-71
2023/09/17 01:14:56;;;;;;;20.42;12.18;;;;;;;;;;5034016;28;20061;-71
2023/09/17 01:17:27;;;;;;;18.50;11.10;;;;;;;;;;5034402;28;20094;-71
2023/09/17 01:19:53;;;;;;;18.52;11.13;;;;;;;;;;5034323;28;20018;-71
2023/09/17 01:22:26;;;;;;;19.38;11.55;;;;;;;;;;5034086;28;20017;-71
2023/09/17 01:25:05;;;;;;;18.95;11.18;;;;;;;;;;5034263;28;20491;-71
2023/09/17 01:27:32;;;;;;;21.10;11.05;;;;;;;;;;5033412;28;20010;-70
2023/09/17 01:29:57;;;;;;;18.33;10.55;;;;;;;;;;5033788;28;20021;-71
2023/09/17 01:32:22;;;;;;;23.10;12.87;;;;;;;;;;5033512;28;20052;-70
2023/09/17 01:34:52;;;;;;;18.53;12.13;;;;;;;;;;5033566;28;20259;-70
2023/09/17 01:37:23;;;;;;;21.98;12.13;;;;;;;;;;5033598;28;20457;-71
2023/09/17 01:39:53;;;;;;;16.00;11.30;;;;;;;;;;5033746;28;20432;-71
2023/09/17 01:42:19;;;;;;;20.27;12.07;;;;;;;;;;5033737;28;20043;-71
2023/09/17 01:44:46;;;;;;;22.48;11.77;;;;;;;;;;5033909;28;20481;-71
2023/09/17 01:47:11;;;;;;;24.23;11.43;;;;;;;;;;5033895;28;20028;-71
2023/09/17 01:49:38;;;;;;;27.35;11.80;;;;;;;;;;5033504;28;20065;-71
2023/09/17 01:52:04;;;;;;;21.73;11.38;;;;;;;;;;5033528;28;20063;-71
2023/09/17 01:54:30;;;;;;;15.43;10.38;;;;;;;;;;5033507;28;20020;-71
2023/09/17 01:56:55;;;;;;;24.13;11.75;;;;;;;;;;5033035;28;20030;-71
2023/09/17 01:59:20;;;;;;;23.67;11.07;;;;;;;;;;5033548;28;20504;-71
2023/09/17 02:01:45;;;;;;;16.60;10.67;;;;;;;;;;5033171;28;20653;-71
2023/09/17 02:04:11;;;;;;;23.37;12.50;;;;;;;;;;5032932;28;20022;-71
2023/09/17 02:06:36;;;;;;;16.42;10.93;;;;;;;;;;5033614;28;20258;-71
2023/09/17 02:09:05;;;;;;;26.63;11.45;;;;;;;;;;5033357;28;20044;-71
2023/09/17 02:11:30;;;;;;;17.38;11.32;;;;;;;;;;5033311;28;20087;-71
2023/09/17 02:13:55;;;;;;;18.97;11.33;;;;;;;;;;5033298;28;20469;-71
2023/09/17 02:16:21;;;;;;;32.00;11.97;;;;;;;;;;5033166;28;20037;-71
2023/09/17 02:18:46;;;;;;;22.15;12.63;;;;;;;;;;5033257;28;20021;-71
2023/09/17 02:21:11;;;;;;;22.00;11.80;;;;;;;;;;5033294;28;20053;-71
2023/09/17 02:23:37;;;;;;;17.90;10.97;;;;;;;;;;5032669;28;20108;-71
2023/09/17 02:26:02;;;;;;;21.53;11.23;;;;;;;;;;5033193;28;20029;-71
2023/09/17 02:28:27;;;;;;;21.92;10.43;;;;;;;;;;5033375;28;20025;-71
2023/09/17 02:30:53;;;;;;;17.30;9.97;;;;;;;;;;5032870;28;20528;-71
2023/09/17 02:33:18;;;;;;;19.10;10.80;;;;;;;;;;5033161;28;20258;-71
2023/09/17 02:35:43;;;;;;;19.00;11.10;;;;;;;;;;5033063;28;20026;-71
2023/09/17 02:38:08;;;;;;;21.93;11.93;;;;;;;;;;5033072;28;20021;-71
2023/09/17 02:40:34;;;;;;;19.55;12.00;;;;;;;;;;5032986;28;20801;-71
2023/09/17 02:43:01;;;;;;;17.13;11.00;;;;;;;;;;5033017;28;20096;-71
2023/09/17 02:45:26;;;;;;;17.63;11.23;;;;;;;;;;5032900;28;20029;-71
2023/09/17 02:47:51;;;;;;;22.90;12.33;;;;;;;;;;5033011;28;20067;-71
2023/09/17 02:50:17;;;;;;;19.60;11.93;;;;;;;;;;5032862;28;20243;-71
2023/09/17 02:52:42;;;;;;;19.65;11.30;;;;;;;;;;5032865;28;20262;-71
2023/09/17 02:55:08;;;;;;;17.53;12.30;;;;;;;;;;5032500;28;20060;-71
2023/09/17 02:57:33;;;;;;;16.50;11.07;;;;;;;;;;5032740;28;20257;-71
2023/09/17 02:59:58;;;;;;;22.45;10.88;;;;;;;;;;5032940;28;20017;-71
2023/09/17 03:02:24;;;;;;;19.87;11.13;;;;;;;;;;5032675;28;20014;-71
2023/09/17 03:04:51;;;;;;;19.33;10.98;;;;;;;;;;5032807;28;20282;-71
2023/09/17 03:07:18;;;;;;;19.23;10.90;;;;;;;;;;5032697;28;20021;-71
2023/09/17 03:09:44;;;;;;;19.13;11.43;;;;;;;;;;5033039;28;20401;-71
2023/09/17 03:12:10;;;;;;;23.08;11.20;;;;;;;;;;5032700;28;20017;-71
2023/09/17 03:14:35;;;;;;;18.63;10.88;;;;;;;;;;5034548;28;20018;-71
2023/09/17 03:17:03;;;;;;;23.87;10.50;;;;;;;;;;5036375;28;20032;-71
2023/09/17 03:19:28;;;;;;;15.85;11.20;;;;;;;;;;5036370;28;20022;-71
2023/09/17 03:21:53;;;;;;;20.63;11.00;;;;;;;;;;5036554;28;20037;-71
2023/09/17 03:24:18;;;;;;;20.87;10.63;;;;;;;;;;5018205;28;20867;-71
2023/09/17 03:26:44;;;;;;;18.23;10.93;;;;;;;;;;5036259;28;20026;-71
2023/09/17 03:29:10;;;;;;;16.17;10.83;;;;;;;;;;5036120;28;20386;-71
2023/09/17 03:31:36;;;;;;;17.38;10.52;;;;;;;;;;5035954;28;20061;-70
2023/09/17 03:34:03;;;;;;;16.45;10.27;;;;;;;;;;5036399;28;20025;-71
2023/09/17 03:36:28;;;;;;;18.00;11.93;;;;;;;;;;5035940;28;20480;-71
2023/09/17 03:38:53;;;;;;;22.98;10.57;;;;;;;;;;5035995;28;20029;-71
2023/09/17 03:41:18;;;;;;;16.90;11.75;;;;;;;;;;5036001;28;20095;-71
2023/09/17 03:43:44;;;;;;;17.87;11.67;;;;;;;;;;5035964;28;20009;-71
2023/09/17 03:46:10;;;;;;;16.45;11.27;;;;;;;;;;5036121;28;20792;-71
2023/09/17 03:48:35;;;;;;;17.02;10.40;;;;;;;;;;5035777;28;20112;-71
2023/09/17 03:51:01;;;;;;;16.15;10.82;;;;;;;;;;5035716;28;20021;-71
2023/09/17 03:53:27;;;;;;;17.27;10.75;;;;;;;;;;5035408;28;20080;-71
2023/09/17 03:55:52;;;;;;;17.10;10.07;;;;;;;;;;5035677;28;20041;-71
2023/09/17 03:58:18;;;;;;;20.55;10.25;;;;;;;;;;5035675;28;20433;-71
2023/09/17 04:00:44;;;;;;;17.30;9.82;;;;;;;;;;5035657;28;20484;-71
2023/09/17 04:03:09;;;;;;;15.73;9.90;;;;;;;;;;5035623;28;20037;-71
2023/09/17 04:05:34;;;;;;;12.88;9.30;;;;;;;;;;5035518;28;20393;-71
2023/09/17 04:07:59;;;;;;;12.77;9.80;;;;;;;;;;5035502;28;20385;-71
2023/09/17 04:10:26;;;;;;;18.90;10.03;;;;;;;;;;5035397;28;20026;-71
2023/09/17 04:12:51;;;;;;;15.48;9.35;;;;;;;;;;5035307;28;20053;-71
2023/09/17 04:15:18;;;;;;;18.13;9.80;;;;;;;;;;5035295;28;20072;-71
2023/09/17 04:17:44;;;;;;;16.30;10.07;;;;;;;;;;5035338;28;20021;-71
2023/09/17 04:20:18;;;;;;;16.35;10.32;;;;;;;;;;5035516;28;20381;-71
2023/09/17 04:22:43;;;;;;;18.23;10.15;;;;;;;;;;5035017;28;20033;-71
2023/09/17 04:25:09;;;;;;;15.27;10.05;;;;;;;;;;5034765;28;20026;-71
2023/09/17 04:27:36;;;;;;;17.23;9.90;;;;;;;;;;5034967;28;20021;-71
2023/09/17 04:30:03;;;;;;;17.83;10.05;;;;;;;;;;5034813;28;20024;-71
2023/09/17 04:32:28;;;;;;;19.95;10.45;;;;;;;;;;5034765;28;20050;-71
2023/09/17 04:34:54;;;;;;;13.02;8.80;;;;;;;;;;5035131;28;20037;-71
2023/09/17 04:37:19;;;;;;;15.00;9.37;;;;;;;;;;5034978;28;20432;-71
2023/09/17 04:39:49;;;;;;;16.65;10.10;;;;;;;;;;5035152;28;20381;-71
2023/09/17 04:42:14;;;;;;;16.88;9.35;;;;;;;;;;5034626;28;20432;-71
2023/09/17 04:44:40;;;;;;;15.43;9.25;;;;;;;;;;5034814;28;20013;-70
2023/09/17 04:47:06;;;;;;;14.80;8.50;;;;;;;;;;5034719;28;20029;-70
2023/09/17 04:49:32;;;;;;;17.00;10.00;;;;;;;;;;5034708;28;20023;-71
2023/09/17 04:51:57;;;;;;;14.45;9.48;;;;;;;;;;5034409;28;20100;-71
2023/09/17 04:54:23;;;;;;;17.40;9.00;;;;;;;;;;5034652;28;20108;-71
2023/09/17 04:56:49;;;;;;;12.80;7.70;;;;;;;;;;5034449;28;20274;-71
2023/09/17 04:59:14;;;;;;;15.77;7.65;;;;;;;;;;5034578;28;20062;-71
2023/09/17 05:01:39;;;;;;;14.03;7.53;;;;;;;;;;5034295;28;20370;-71
2023/09/17 05:04:04;;;;;;;17.37;8.80;;;;;;;;;;5034150;28;20032;-71
2023/09/17 05:06:30;;;;;;;15.73;7.65;;;;;;;;;;5034384;28;20052;-71
2023/09/17 05:08:55;;;;;;;18.40;9.10;;;;;;;;;;5034338;28;20500;-71
2023/09/17 05:11:20;;;;;;;16.07;8.00;;;;;;;;;;5034234;28;20052;-71
2023/09/17 05:13:45;;;;;;;12.30;6.73;;;;;;;;;;5034342;28;20235;-71
2023/09/17 05:16:10;;;;;;;15.87;8.20;;;;;;;;;;5034142;28;20393;-71
2023/09/17 05:18:36;;;;;;;14.50;7.27;;;;;;;;;;5034375;28;20041;-71
2023/09/17 05:21:01;;;;;;;12.68;7.88;;;;;;;;;;5034061;28;20737;-71
2023/09/17 05:23:26;;;;;;;15.27;7.53;;;;;;;;;;5033767;28;20104;-71
2023/09/17 05:25:51;;;;;;;13.50;8.25;;;;;;;;;;5033668;28;20094;-71
2023/09/17 05:28:17;;;;;;;13.55;7.95;;;;;;;;;;5033912;28;20033;-71
2023/09/17 05:30:42;;;;;;;15.20;8.20;;;;;;;;;;5033678;28;20025;-71
2023/09/17 05:33:07;;;;;;;15.15;7.93;;;;;;;;;;5033866;28;20259;-71
2023/09/17 05:35:39;;;;;;;11.88;7.50;;;;;;;;;;5033693;28;20029;-71
2023/09/17 05:38:04;;;;;;;12.32;7.88;;;;;;;;;;5033788;28;20022;-71
2023/09/17 05:40:29;;;;;;;16.03;8.30;;;;;;;;;;5033768;28;20151;-71
2023/09/17 05:42:56;;;;;;;12.77;7.43;;;;;;;;;;5033584;28;20308;-71
2023/09/17 05:45:21;;;;;;;14.45;8.10;;;;;;;;;;5033674;28;20021;-72
2023/09/17 05:47:46;;;;;;;13.10;7.27;;;;;;;;;;5033885;28;20031;-73
2023/09/17 05:50:12;;;;;;;15.23;6.63;;;;;;;;;;5033893;28;20301;-74
2023/09/17 05:52:37;;;;;;;15.70;7.87;;;;;;;;;;5033265;28;20263;-74
2023/09/17 05:55:04;;;;;;;11.13;7.10;;;;;;;;;;5033743;28;20044;-74
2023/09/17 05:57:29;;;;;;;16.33;8.02;;;;;;;;;;5033414;28;20026;-74
2023/09/17 05:59:54;;;;;;;14.05;8.57;;;;;;;;;;5033523;28;20017;-74
2023/09/17 06:02:19;;;;;;;13.35;8.13;;;;;;;;;;5033556;28;20021;-70
2023/09/17 06:04:47;;;;;;;13.63;7.37;;;;;;;;;;5033417;28;20072;-70
2023/09/17 06:07:13;;;;;;;19.60;8.15;;;;;;;;;;5033374;28;20741;-69
2023/09/17 06:09:39;;;;;;;13.20;7.70;;;;;;;;;;5033274;28;20034;-73
2023/09/17 06:12:05;;;;;;;13.13;7.73;;;;;;;;;;5033291;28;20025;-73
2023/09/17 06:14:30;;;;;;;12.00;6.97;;;;;;;;;;5033310;28;20283;-73
2023/09/17 06:16:55;;;;;;;10.02;6.57;;;;;;;;;;5033231;28;20416;-73
2023/09/17 06:19:21;;;;;;;11.67;6.90;;;;;;;;;;5033322;28;20028;-73
2023/09/17 06:21:46;;;;;;;10.32;6.72;;;;;;;;;;5033046;28;20274;-73
2023/09/17 06:24:11;;;;;;;14.97;7.57;;;;;;;;;;5033011;28;20028;-73
2023/09/17 06:26:37;;;;;;;10.70;6.65;;;;;;;;;;5033125;28;20257;-73
2023/09/17 06:29:02;;;;;;;12.93;6.80;;;;;;;;;;5033139;28;20017;-73
2023/09/17 06:31:27;;;;;;;13.53;6.40;;;;;;;;;;5033036;28;20115;-73
2023/09/17 06:33:53;;;;;;;11.50;6.55;;;;;;;;;;5032891;28;20532;-73
2023/09/17 06:36:18;;;;;;;10.27;5.88;;;;;;;;;;5033050;28;20018;-73
2023/09/17 06:38:44;;;;;;;10.75;6.28;;;;;;;;;;5033037;28;20018;-74
2023/09/17 06:41:09;;;;;;;12.03;6.43;;;;;;;;;;5033024;28;20021;-73
2023/09/17 06:43:34;;;;;;;14.57;6.23;;;;;;;;;;5033014;28;20075;-73
2023/09/17 06:45:59;;;;;;;11.33;6.57;;;;;;;;;;5015298;28;20022;-73
2023/09/17 06:48:25;;;;;;;17.27;5.97;;;;;;;;;;5033242;28;20017;-73
2023/09/17 06:50:51;;;;;;;10.48;6.65;;;;;;;;;;5036986;28;20147;-73
2023/09/17 06:53:16;;;;;;;13.25;5.68;;;;;;;;;;5036666;28;20101;-73
2023/09/17 06:55:41;;;;;;;14.10;7.00;;;;;;;;;;5036739;28;20027;-73
2023/09/17 06:58:06;;;;;;;8.73;5.60;;;;;;;;;;5036784;28;20018;-73
2023/09/17 07:00:32;;;;;;;10.87;5.90;;;;;;;;;;5036766;28;20385;-73
2023/09/17 07:02:57;;;;;;;16.57;5.87;;;;;;;;;;5036709;28;20068;-73
2023/09/17 07:05:23;;;;;;;9.85;5.45;;;;;;;;;;5036686;28;20247;-73
2023/09/17 07:07:48;;;;;;;11.30;5.17;;;;;;;;;;5036579;28;20466;-73
2023/09/17 07:10:13;;;;;;;8.43;5.33;;;;;;;;;;5036580;28;20025;-73
2023/09/17 07:12:38;;;;;;;12.53;5.53;;;;;;;;;;5036463;28;20025;-73
2023/09/17 07:15:05;;;;;;;10.25;5.35;;;;;;;;;;5036389;28;20025;-72
2023/09/17 07:17:30;;;;;;;13.68;5.28;;;;;;;;;;5036395;28;20021;-72
2023/09/17 07:19:56;;;;;;;14.63;5.80;;;;;;;;;;5033853;28;20021;-73
2023/09/17 07:22:21;;;;;;;10.52;4.78;;;;;;;;;;5028086;28;20269;-72
2023/09/17 07:24:46;;;;;;;8.00;4.70;;;;;;;;;;5035775;28;20017;-73
2023/09/17 07:27:13;;;;;;;8.97;4.33;;;;;;;;;;5034661;28;20022;-72
2023/09/17 07:29:38;;;;;;;9.52;4.70;;;;;;;;;;5033432;28;20270;-73
2023/09/17 07:32:04;;;;;;;6.55;4.53;;;;;;;;;;5034939;28;20053;-73
2023/09/17 07:34:30;;;;;;;8.70;4.65;;;;;;;;;;5035297;28;20444;-72
2023/09/17 07:36:56;;;;;;;8.90;4.57;;;;;;;;;;5035139;28;20024;-73
2023/09/17 07:39:21;;;;;;;7.50;4.63;;;;;;;;;;5035640;28;20017;-73
2023/09/17 07:41:46;;;;;;;7.87;4.90;;;;;;;;;;5034400;28;20021;-73
2023/09/17 07:44:12;;;;;;;7.67;4.07;;;;;;;;;;5035613;28;20096;-73
2023/09/17 07:46:37;;;;;;;9.57;4.38;;;;;;;;;;5035630;28;20488;-73
2023/09/17 07:49:02;;;;;;;11.32;4.03;;;;;;;;;;5035457;28;20022;-73
2023/09/17 07:51:27;;;;;;;12.95;3.95;;;;;;;;;;5017277;28;20021;-73
2023/09/17 07:53:53;;;;;;;9.80;3.87;;;;;;;;;;5035524;28;20053;-73
2023/09/17 07:56:18;;;;;;;11.35;3.97;;;;;;;;;;5035205;28;20044;-73
2023/09/17 07:58:43;;;;;;;9.00;4.10;;;;;;;;;;5036656;28;20030;-73
2023/09/17 08:01:09;;;;;;;11.18;4.60;;;;;;;;;;5033990;28;20427;-73
2023/09/17 08:03:35;;;;;;;11.23;3.70;;;;;;;;;;5035330;28;20025;-73
2023/09/17 08:06:00;;;;;;;13.13;4.10;;;;;;;;;;5034471;28;20056;-73
2023/09/17 08:08:26;;;;;;;9.47;3.37;;;;;;;;;;5035183;28;20017;-72
2023/09/17 08:10:51;;;;;;;5.47;3.33;;;;;;;;;;5035181;28;20041;-73
2023/09/17 08:13:17;;;;;;;7.97;3.63;;;;;;;;;;5035008;28;20059;-73
2023/09/17 08:15:43;;;;;;;8.73;4.00;;;;;;;;;;5034971;28;20279;-72
2023/09/17 08:18:08;;;;;;;9.60;3.40;;;;;;;;;;5034994;28;20020;-73
2023/09/17 08:20:33;;;;;;;8.20;3.70;;;;;;;;;;5034432;28;20428;-72
2023/09/17 08:22:59;;;;;;;10.27;3.60;;;;;;;;;;5035040;28;20013;-73
2023/09/17 08:25:26;;;;;;;11.30;3.78;;;;;;;;;;5034869;28;20029;-73
2023/09/17 08:27:51;;;;;;;8.82;3.45;;;;;;;;;;5034676;28;20525;-73
2023/09/17 08:30:16;;;;;;;8.15;3.70;;;;;;;;;;5034619;28;20109;-72
2023/09/17 08:32:43;;;;;;;9.20;3.40;;;;;;;;;;5033257;28;20111;-72
2023/09/17 08:35:08;;;;;;;8.48;3.35;;;;;;;;;;5016094;28;20473;-73
2023/09/17 08:37:34;;;;;;;6.77;3.07;;;;;;;;;;5034808;28;20021;-72
2023/09/17 08:40:00;;;;;;;8.32;3.47;;;;;;;;;;5034612;28;20247;-72
2023/09/17 08:42:27;;;;;;;8.50;3.00;;;;;;;;;;5034346;28;20017;-72
2023/09/17 08:44:55;;;;;;;7.93;3.28;;;;;;;;;;5034419;28;20025;-72
2023/09/17 08:47:20;;;;;;;7.35;2.78;;;;;;;;;;5034208;28;20473;-72
2023/09/17 08:49:45;;;;;;;9.77;3.60;;;;;;;;;;5015920;28;20033;-73
2023/09/17 08:52:11;;;;;;;6.23;2.80;;;;;;;;;;5034097;28;20259;-73
2023/09/17 08:54:38;;;;;;;9.25;3.30;;;;;;;;;;5032751;28;20029;-73
2023/09/17 08:57:04;;;;;;;9.65;3.22;;;;;;;;;;5016142;28;20033;-72
2023/09/17 08:59:29;;;;;;;8.77;3.33;;;;;;;;;;5033803;28;20113;-73
2023/09/17 09:01:56;;;;;;;6.68;2.90;;;;;;;;;;5015984;28;20029;-73
2023/09/17 09:04:22;;;;;;;15.57;2.95;;;;;;;;;;5033526;28;20045;-73
2023/09/17 09:06:48;;;;;;;8.95;2.97;;;;;;;;;;5033846;28;20032;-72
2023/09/17 09:09:14;;;;;;;5.07;2.58;;;;;;;;;;5033903;28;20475;-72
2023/09/17 09:11:40;;;;;;;7.97;3.20;;;;;;;;;;5033505;28;20025;-67
2023/09/17 09:14:06;;;;;;;5.50;2.53;;;;;;;;;;5033803;28;20108;-68
2023/09/17 09:16:37;;;;;;;9.77;3.50;;;;;;;;;;5033718;28;20488;-68
2023/09/17 09:19:02;;;;;;;6.85;2.90;;;;;;;;;;5033176;28;20383;-68
2023/09/17 09:21:28;;;;;;;12.05;3.40;;;;;;;;;;5033787;28;20055;-68
2023/09/17 09:23:59;;;;;;;7.75;3.25;;;;;;;;;;5033980;28;20462;-68
2023/09/17 09:26:35;;;;;;;7.80;3.22;;;;;;;;;;5032840;28;20565;-68
2023/09/17 09:29:01;;;;;;;9.35;3.42;;;;;;;;;;5015718;28;20040;-68
2023/09/17 09:31:27;;;;;;;8.70;3.65;;;;;;;;;;5033451;28;20042;-68
2023/09/17 09:33:53;;;;;;;12.48;3.17;;;;;;;;;;5026487;28;20032;-67
2023/09/17 09:36:19;;;;;;;6.13;3.00;;;;;;;;;;5032918;28;20021;-68
2023/09/17 09:38:44;;;;;;;10.25;3.13;;;;;;;;;;5033305;28;20094;-68
2023/09/17 09:41:10;;;;;;;10.80;3.73;;;;;;;;;;5032487;28;20021;-67
2023/09/17 09:43:36;;;;;;;10.43;3.15;;;;;;;;;;5032882;28;20532;-68
2023/09/17 09:46:04;;;;;;;10.90;3.45;;;;;;;;;;5032871;28;20037;-68
2023/09/17 09:48:29;;;;;;;14.20;3.55;;;;;;;;;;5032093;28;20104;-68
2023/09/17 09:50:55;;;;;;;8.85;3.50;;;;;;;;;;5032649;28;20535;-68
2023/09/17 09:53:20;;;;;;;11.80;3.92;;;;;;;;;;5029447;28;20036;-68
2023/09/17 09:55:46;;;;;;;10.33;3.63;;;;;;;;;;5038427;28;20025;-68
2023/09/17 09:58:13;;;;;;;9.50;3.72;;;;;;;;;;5034167;28;20102;-68
2023/09/17 10:00:44;;;;;;;9.07;3.60;;;;;;;;;;5035345;28;20025;-68
2023/09/17 10:03:09;;;;;;;;;;;;;;;;;;5033558;28;21650;-68
2023/09/17 10:05:40;;;;;;;9.97;3.53;;;;;;;;;;5033024;28;19909;-68
2023/09/17 10:08:07;;;;;;;8.40;3.80;;;;;;;;;;5033999;28;20040;-68
2023/09/17 10:10:32;;;;;;;14.43;4.00;;;;;;;;;;5035280;28;20052;-68
2023/09/17 10:12:59;;;;;;;9.00;3.47;;;;;;;;;;5030713;28;20500;-68
2023/09/17 10:15:25;;;;;;;11.80;3.53;;;;;;;;;;5030086;28;20029;-68
2023/09/17 10:17:51;;;;;;;8.60;3.55;;;;;;;;;;5030871;28;20083;-68
2023/09/17 10:20:18;;;;;;;8.50;4.55;;;;;;;;;;5032530;28;20021;-68
2023/09/17 10:22:43;;;;;;;11.68;4.05;;;;;;;;;;5036443;28;20029;-68
2023/09/17 10:25:09;;;;;;;13.05;4.30;;;;;;;;;;5043881;28;20527;-68
2023/09/17 10:27:36;;;;;;;8.27;4.18;;;;;;;;;;5032624;28;20555;-68
2023/09/17 10:30:03;;;;;;;13.10;3.75;;;;;;;;;;5037936;28;20049;-68
2023/09/17 10:32:29;;;;;;;11.27;3.83;;;;;;;;;;5036112;28;20041;-68
2023/09/17 10:34:57;;;;;;;13.20;3.72;;;;;;;;;;5028673;28;20025;-68
2023/09/17 10:37:23;;;;;;;12.50;4.10;;;;;;;;;;5037251;28;20025;-67
2023/09/17 10:39:48;;;;;;;10.90;3.22;;;;;;;;;;5038698;28;20037;-67
2023/09/17 10:42:15;;;;;;;9.30;3.67;;;;;;;;;;5030955;28;20025;-69
2023/09/17 10:44:42;;;;;;;13.48;4.00;;;;;;;;;;5018842;28;20025;-69
2023/09/17 10:47:09;;;;;;;16.13;4.40;;;;;;;;;;5028982;28;20029;-69
2023/09/17 10:49:36;;;;;;;9.45;4.00;;;;;;;;;;5035596;28;20568;-70
2023/09/17 10:52:01;;;;;;;11.15;3.72;;;;;;;;;;5028422;28;20025;-70
2023/09/17 10:54:27;;;;;;;14.53;4.20;;;;;;;;;;5020553;28;20029;-70
2023/09/17 10:56:52;;;;;;;18.40;4.47;;;;;;;;;;5030367;28;20124;-70
2023/09/17 10:59:18;;;;;;;11.82;4.13;;;;;;;;;;5035298;28;20024;-70
2023/09/17 11:01:44;;;;;;;9.93;4.90;;;;;;;;;;5032003;28;20013;-70
2023/09/17 11:04:11;;;;;;;11.48;4.28;;;;;;;;;;5036826;28;20080;-70
2023/09/17 11:06:37;;;;;;;14.73;4.30;;;;;;;;;;5031795;28;20026;-70
2023/09/17 11:09:04;;;;;;;17.75;4.60;;;;;;;;;;5032244;28;20029;-70
2023/09/17 11:11:30;;;;;;;9.57;3.72;;;;;;;;;;5031278;28;20025;-70
2023/09/17 11:13:56;;;;;;;12.88;3.83;;;;;;;;;;5030314;28;20354;-69
2023/09/17 11:16:23;;;;;;;10.48;4.32;;;;;;;;;;5032817;28;20033;-70
2023/09/17 11:19:05;;;;;;;10.68;3.70;;;;;;;;;;5031563;28;20408;-70
2023/09/17 11:21:32;;;;;;;14.00;3.95;;;;;;;;;;5029123;28;20028;-69
2023/09/17 11:23:58;;;;;;;16.98;4.32;;;;;;;;;;5032381;28;20022;-70
2023/09/17 11:26:27;;;;;;;20.67;4.28;;;;;;;;;;5033775;28;20032;-69
2023/09/17 11:28:56;;;;;;;17.30;3.53;;;;;;;;;;5029362;28;20059;-69
2023/09/17 11:31:24;;;;;;;15.10;3.80;;;;;;;;;;5034974;28;20079;-69
2023/09/17 11:33:51;;;;;;;24.35;4.00;;;;;;;;;;5030226;28;20029;-70
2023/09/17 11:36:16;;;;;;;23.25;4.45;;;;;;;;;;5033450;28;20025;-70
2023/09/17 11:38:44;;;;;;;16.38;4.38;;;;;;;;;;5032041;28;22055;-69
2023/09/17 11:41:10;;;;;;;14.48;4.35;;;;;;;;;;5033736;28;20025;-69
2023/09/17 11:43:37;;;;;;;21.15;4.00;;;;;;;;;;5034264;28;20025;-69
2023/09/17 11:46:04;;;;;;;16.42;4.00;;;;;;;;;;5033721;28;20029;-70
2023/09/17 11:48:30;;;;;;;16.15;3.90;;;;;;;;;;5034431;28;20535;-69
2023/09/17 11:51:15;;;;;;;14.43;3.88;;;;;;;;;;5035650;28;20052;-70
2023/09/17 11:53:54;;;;;;;13.10;3.92;;;;;;;;;;5033096;28;20033;-69
2023/09/17 11:56:19;;;;;;;19.00;4.22;;;;;;;;;;5034250;28;20021;-70
2023/09/17 11:58:45;;;;;;;9.65;3.55;;;;;;;;;;5035537;28;20025;-69
2023/09/17 12:01:10;;;;;;;17.75;4.32;;;;;;;;;;5033819;28;20481;-70
2023/09/17 12:03:36;;;;;;;12.73;3.75;;;;;;;;;;5037466;28;20106;-70
2023/09/17 12:06:01;;;;;;;20.25;3.95;;;;;;;;;;5035552;28;20731;-69
2023/09/17 12:08:26;;;;;;;21.10;4.50;;;;;;;;;;5032970;28;20021;-69
2023/09/17 12:10:56;;;;;;;13.07;3.70;;;;;;;;;;5034699;28;20278;-69
2023/09/17 12:13:23;;;;;;;12.35;3.85;;;;;;;;;;5032955;28;20032;-69
2023/09/17 12:15:48;;;;;;;18.63;4.93;;;;;;;;;;5035726;28;20497;-69
2023/09/17 12:18:13;;;;;;;16.73;4.90;;;;;;;;;;5032938;28;20021;-69
2023/09/17 12:20:59;;;;;;;12.63;3.47;;;;;;;;;;5037737;28;20071;-69
2023/09/17 12:23:37;;;;;;;9.13;4.03;;;;;;;;;;5020933;28;20097;-68
2023/09/17 12:26:02;;;;;;;17.60;3.55;;;;;;;;;;5031871;28;20029;-70
2023/09/17 12:28:28;;;;;;;16.45;4.55;;;;;;;;;;5032166;28;20030;-69
2023/09/17 12:30:53;;;;;;;17.23;3.97;;;;;;;;;;5032346;28;20041;-69
2023/09/17 12:33:18;;;;;;;15.35;3.72;;;;;;;;;;5034867;28;20018;-69
2023/09/17 12:35:44;;;;;;;15.52;4.07;;;;;;;;;;5031004;28;20026;-69
2023/09/17 12:38:09;;;;;;;14.60;4.33;;;;;;;;;;5030991;28;20480;-69
2023/09/17 12:40:34;;;;;;;13.20;4.17;;;;;;;;;;5030512;28;20328;-69
2023/09/17 12:42:59;;;;;;;14.97;4.53;;;;;;;;;;5032617;28;20516;-69
2023/09/17 12:45:24;;;;;;;10.07;3.77;;;;;;;;;;5032157;28;20021;-69
2023/09/17 12:47:50;;;;;;;17.37;4.43;;;;;;;;;;5029497;28;20781;-69
2023/09/17 12:50:17;;;;;;;14.88;4.10;;;;;;;;;;5029592;28;20017;-69
2023/09/17 12:52:42;;;;;;;19.33;4.68;;;;;;;;;;5037097;28;20529;-69
2023/09/17 12:55:08;;;;;;;12.98;4.13;;;;;;;;;;5037394;28;20113;-69
2023/09/17 12:57:33;;;;;;;18.58;4.18;;;;;;;;;;5032028;28;20055;-69
2023/09/17 12:59:59;;;;;;;19.30;4.73;;;;;;;;;;5031142;28;20092;-74
2023/09/17 13:02:32;;;;;;;12.25;4.47;;;;;;;;;;5033113;28;20266;-75
2023/09/17 13:04:57;;;;;;;18.20;4.45;;;;;;;;;;5032850;28;20018;-77
2023/09/17 13:07:24;;;;;;;14.02;4.40;;;;;;;;;;5032107;28;20440;-73
2023/09/17 13:09:53;;;;;;;19.60;4.45;;;;;;;;;;5034033;28;20022;-74
2023/09/17 13:12:19;;;;;;;17.98;4.25;;;;;;;;;;5035363;28;20072;-74
2023/09/17 13:14:47;;;;;;;23.20;4.13;;;;;;;;;;5034949;28;20025;-75
2023/09/17 13:17:12;;;;;;;21.52;4.28;;;;;;;;;;5029144;28;20028;-74
2023/09/17 13:19:37;;;;;;;14.07;3.88;;;;;;;;;;5014574;28;20025;-77
2023/09/17 13:22:03;;;;;;;14.37;3.93;;;;;;;;;;5034235;28;20025;-77
2023/09/17 13:24:28;;;;;;;10.77;3.90;;;;;;;;;;5033516;28;20273;-77
2023/09/17 13:26:58;;;;;;;12.63;3.80;;;;;;;;;;5031950;28;20092;-77
2023/09/17 13:29:23;;;;;;;22.17;4.10;;;;;;;;;;5031694;28;20047;-75
2023/09/17 13:31:50;;;;;;;14.33;3.90;;;;;;;;;;5015670;28;20686;-76
2023/09/17 13:34:18;;;;;;;16.08;3.58;;;;;;;;;;5032704;28;20746;-76
2023/09/17 13:36:43;;;;;;;11.18;3.95;;;;;;;;;;5033142;28;20541;-76
2023/09/17 13:39:11;;;;;;;14.30;4.07;;;;;;;;;;5033351;28;20088;-76
2023/09/17 13:41:36;;;;;;;19.25;3.65;;;;;;;;;;5033161;28;20389;-76
2023/09/17 13:44:01;;;;;;;17.87;3.80;;;;;;;;;;5033367;28;20096;-77
2023/09/17 13:46:27;;;;;;;8.40;3.57;;;;;;;;;;5033248;28;20270;-76
2023/09/17 13:48:53;;;;;;;7.75;3.58;;;;;;;;;;5014889;28;20476;-76
2023/09/17 13:51:18;;;;;;;20.73;4.18;;;;;;;;;;5033331;28;20103;-76
2023/09/17 13:53:43;;;;;;;14.73;3.80;;;;;;;;;;5033145;28;20024;-76
2023/09/17 13:56:08;;;;;;;14.55;3.80;;;;;;;;;;5033376;28;20771;-76
2023/09/17 13:58:34;;;;;;;22.40;4.37;;;;;;;;;;5031707;28;20018;-76
2023/09/17 14:00:59;;;;;;;16.57;3.97;;;;;;;;;;5032826;28;20091;-76
2023/09/17 14:03:24;;;;;;;14.97;3.70;;;;;;;;;;5032372;28;20032;-76
2023/09/17 14:05:49;;;;;;;9.43;3.60;;;;;;;;;;5032958;28;20079;-76
2023/09/17 14:08:14;;;;;;;13.97;4.17;;;;;;;;;;5033097;28;20034;-76
2023/09/17 14:10:41;;;;;;;12.57;3.57;;;;;;;;;;5032922;28;20056;-76
2023/09/17 14:13:06;;;;;;;13.30;3.53;;;;;;;;;;5033094;28;20021;-73
2023/09/17 14:15:33;;;;;;;21.63;3.67;;;;;;;;;;5032691;28;20017;-72
2023/09/17 14:17:58;;;;;;;12.63;3.10;;;;;;;;;;5032451;28;20018;-73
2023/09/17 14:20:23;;;;;;;11.63;3.37;;;;;;;;;;5032834;28;20013;-73
2023/09/17 14:22:48;;;;;;;9.60;3.50;;;;;;;;;;5033225;28;20818;-74